createdAt,value
2023-03-27T00:02:05.135Z,7.60
2023-03-27T00:04:31.865Z,7.43
2023-03-27T00:06:59.330Z,7.13
2023-03-27T00:09:27.720Z,7.07
2023-03-27T00:11:56.096Z,6.83
2023-03-27T00:14:23.851Z,7.63
2023-03-27T00:16:50.860Z,6.97
2023-03-27T00:19:18.680Z,6.70
2023-03-27T00:21:45.205Z,7.13
2023-03-27T00:24:11.856Z,6.87
2023-03-27T00:26:40.370Z,7.43
2023-03-27T00:29:07.647Z,6.93
2023-03-27T00:31:34.332Z,6.83
2023-03-27T00:34:01.297Z,6.80
2023-03-27T00:36:27.847Z,7.20
2023-03-27T00:38:54.465Z,7.37
2023-03-27T00:41:23.281Z,7.67
2023-03-27T00:43:52.703Z,6.23
2023-03-27T00:46:40.360Z,6.70
2023-03-27T00:49:11.737Z,6.70
2023-03-27T00:51:41.139Z,7.77
2023-03-27T00:54:09.632Z,6.73
2023-03-27T00:56:38.384Z,6.73
2023-03-27T00:59:12.384Z,6.60
2023-03-27T01:01:39.962Z,6.93
2023-03-27T01:04:08.866Z,7.33
2023-03-27T01:06:36.715Z,7.20
2023-03-27T01:09:04.512Z,7.10
2023-03-27T01:11:49.113Z,7.27
2023-03-27T01:14:37.177Z,7.47
2023-03-27T01:17:35.441Z,7.13
2023-03-27T01:20:21.181Z,7.60
2023-03-27T01:23:12.750Z,6.97
2023-03-27T01:25:57.094Z,7.10
2023-03-27T01:28:54.619Z,7.00
2023-03-27T01:31:40.611Z,7.10
2023-03-27T01:34:45.618Z,7.37
2023-03-27T01:37:17.912Z,6.57
2023-03-27T01:40:07.458Z,7.57
2023-03-27T01:43:02.582Z,7.17
2023-03-27T01:45:50.210Z,7.60
2023-03-27T01:48:40.838Z,6.77
2023-03-27T01:51:16.866Z,7.77
2023-03-27T01:53:52.132Z,7.57
2023-03-27T01:56:26.317Z,7.23
2023-03-27T01:59:19.139Z,7.30
2023-03-27T02:01:52.366Z,6.70
2023-03-27T02:04:24.474Z,7.37
2023-03-27T02:06:57.286Z,7.90
2023-03-27T02:09:33.224Z,6.67
2023-03-27T02:12:08.712Z,7.13
2023-03-27T02:14:46.510Z,7.47
2023-03-27T02:17:16.335Z,7.37
2023-03-27T02:19:56.500Z,7.20
2023-03-27T02:22:37.224Z,7.63
2023-03-27T02:25:21.373Z,6.63
2023-03-27T02:27:49.907Z,7.13
2023-03-27T02:30:31.146Z,6.57
2023-03-27T02:33:18.639Z,7.67
2023-03-27T02:35:54.660Z,6.93
2023-03-27T02:38:39.511Z,7.33
2023-03-27T02:41:23.750Z,6.93
2023-03-27T02:44:15.764Z,6.50
2023-03-27T02:46:50.648Z,7.00
2023-03-27T02:49:27.687Z,7.57
2023-03-27T02:52:03.309Z,7.03
2023-03-27T02:54:35.859Z,7.27
2023-03-27T02:57:10.417Z,6.83
2023-03-27T02:59:44.870Z,6.97
2023-03-27T03:02:20.428Z,6.60
2023-03-27T03:04:57.961Z,6.70
2023-03-27T03:07:26.490Z,7.20
2023-03-27T03:09:56.189Z,7.77
2023-03-27T03:12:23.086Z,7.93
2023-03-27T03:14:49.940Z,7.13
2023-03-27T03:17:17.212Z,7.20
2023-03-27T03:19:43.794Z,7.07
2023-03-27T03:22:11.143Z,6.90
2023-03-27T03:24:41.626Z,7.20
2023-03-27T03:27:08.263Z,7.53
2023-03-27T03:29:38.057Z,7.43
2023-03-27T03:32:06.172Z,6.87
2023-03-27T03:34:36.431Z,6.23
2023-03-27T03:37:02.999Z,6.90
2023-03-27T03:39:29.607Z,6.97
2023-03-27T03:41:56.388Z,6.90
2023-03-27T03:44:22.940Z,7.20
2023-03-27T03:46:49.450Z,7.00
2023-03-27T03:49:15.988Z,7.13
2023-03-27T03:51:42.558Z,7.17
2023-03-27T03:54:09.230Z,7.33
2023-03-27T03:56:37.084Z,6.60
2023-03-27T03:59:03.641Z,7.20
2023-03-27T04:01:30.276Z,6.80
2023-03-27T04:03:56.873Z,6.53
2023-03-27T04:06:26.235Z,6.77
2023-03-27T04:08:53.098Z,6.73
2023-03-27T04:11:19.881Z,7.20
2023-03-27T04:13:46.531Z,6.40
2023-03-27T04:16:13.253Z,7.60
2023-03-27T04:18:41.337Z,6.67
2023-03-27T04:21:14.234Z,6.73
2023-03-27T04:23:42.065Z,6.03
2023-03-27T04:26:11.916Z,6.80
2023-03-27T04:28:39.957Z,6.77
2023-03-27T04:31:07.763Z,6.17
2023-03-27T04:33:35.635Z,6.80
2023-03-27T04:36:06.341Z,6.03
2023-03-27T04:38:36.635Z,6.90
2023-03-27T04:41:03.634Z,6.20
2023-03-27T04:43:30.658Z,7.17
2023-03-27T04:45:57.375Z,6.97
2023-03-27T04:48:23.928Z,6.23
2023-03-27T04:50:50.516Z,6.50
2023-03-27T04:53:20.252Z,7.00
2023-03-27T04:55:50.919Z,6.67
2023-03-27T04:58:18.320Z,7.47
2023-03-27T05:00:50.656Z,6.60
2023-03-27T05:03:18.858Z,6.77
2023-03-27T05:05:51.981Z,6.07
2023-03-27T05:08:18.886Z,7.53
2023-03-27T05:10:46.456Z,7.30
2023-03-27T05:13:13.390Z,6.93
2023-03-27T05:15:39.898Z,7.50
2023-03-27T05:18:07.588Z,7.23
2023-03-27T05:20:35.205Z,8.43
2023-03-27T05:23:02.277Z,7.80
2023-03-27T05:25:30.743Z,7.40
2023-03-27T05:27:57.893Z,7.67
2023-03-27T05:30:26.577Z,6.73
2023-03-27T05:32:53.820Z,7.20
2023-03-27T05:35:23.651Z,7.07
2023-03-27T05:37:52.672Z,7.20
2023-03-27T05:40:22.267Z,7.53
2023-03-27T05:42:50.375Z,7.87
2023-03-27T05:45:17.735Z,6.57
2023-03-27T05:47:55.816Z,7.47
2023-03-27T05:50:32.302Z,7.90
2023-03-27T05:53:01.002Z,7.30
2023-03-27T05:55:28.128Z,7.40
2023-03-27T05:57:55.056Z,6.70
2023-03-27T06:00:26.147Z,7.70
2023-03-27T06:02:58.012Z,7.60
2023-03-27T06:05:29.633Z,6.87
2023-03-27T06:08:00.623Z,7.03
2023-03-27T06:10:28.969Z,6.90
2023-03-27T06:13:14.583Z,8.00
2023-03-27T06:15:43.401Z,7.80
2023-03-27T06:18:11.270Z,7.20
2023-03-27T06:20:39.026Z,7.73
2023-03-27T06:23:07.542Z,7.43
2023-03-27T06:25:36.426Z,6.93
2023-03-27T06:28:06.863Z,7.33
2023-03-27T06:30:33.958Z,7.27
2023-03-27T06:33:01.082Z,7.10
2023-03-27T06:35:30.488Z,7.33
2023-03-27T06:37:59.013Z,7.60
2023-03-27T06:40:27.969Z,7.23
2023-03-27T06:42:55.999Z,7.27
2023-03-27T06:45:24.389Z,7.27
2023-03-27T06:48:13.460Z,7.27
2023-03-27T06:50:44.314Z,6.73
2023-03-27T06:53:25.762Z,7.13
2023-03-27T06:55:54.244Z,6.63
2023-03-27T06:58:21.582Z,6.60
2023-03-27T07:00:49.617Z,7.17
2023-03-27T07:03:17.606Z,7.27
2023-03-27T07:05:45.059Z,6.80
2023-03-27T07:08:23.353Z,6.67
2023-03-27T07:11:03.924Z,6.60
2023-03-27T07:13:37.498Z,6.40
2023-03-27T07:16:04.326Z,6.37
2023-03-27T07:18:31.210Z,8.40
2023-03-27T07:20:57.973Z,6.83
2023-03-27T07:23:24.726Z,6.20
2023-03-27T07:25:52.032Z,7.07
2023-03-27T07:28:19.239Z,6.60
2023-03-27T07:30:46.070Z,6.83
2023-03-27T07:33:12.909Z,6.03
2023-03-27T07:35:47.966Z,6.37
2023-03-27T07:38:15.905Z,6.30
2023-03-27T07:40:43.812Z,6.00
2023-03-27T07:43:10.509Z,5.87
2023-03-27T07:45:37.256Z,6.17
2023-03-27T07:48:08.784Z,5.63
2023-03-27T07:50:36.022Z,5.83
2023-03-27T07:53:02.795Z,6.40
2023-03-27T07:55:32.333Z,5.63
2023-03-27T07:58:02.298Z,6.07
2023-03-27T08:00:31.032Z,6.23
2023-03-27T08:03:08.296Z,5.83
2023-03-27T08:05:36.026Z,6.03
2023-03-27T08:08:03.076Z,5.60
2023-03-27T08:10:29.652Z,5.37
2023-03-27T08:12:57.224Z,5.57
2023-03-27T08:15:24.927Z,5.27
2023-03-27T08:17:54.281Z,5.67
2023-03-27T08:20:23.326Z,5.67
2023-03-27T08:22:53.196Z,6.13
2023-03-27T08:25:22.522Z,5.37
2023-03-27T08:27:49.584Z,5.57
2023-03-27T08:30:17.181Z,5.07
2023-03-27T08:32:44.663Z,4.90
2023-03-27T08:35:11.969Z,5.40
2023-03-27T08:37:38.481Z,6.20
2023-03-27T08:40:12.427Z,4.83
2023-03-27T08:42:43.107Z,5.43
2023-03-27T08:45:27.326Z,6.80
2023-03-27T08:48:04.220Z,5.60
2023-03-27T08:50:41.321Z,5.57
2023-03-27T08:53:38.960Z,5.80
2023-03-27T08:56:06.890Z,5.33
2023-03-27T08:58:34.397Z,5.80
2023-03-27T09:01:08.870Z,5.73
2023-03-27T09:03:53.855Z,5.73
2023-03-27T09:06:34.213Z,5.07
2023-03-27T09:09:36.087Z,5.40
2023-03-27T09:12:17.130Z,5.00
2023-03-27T09:14:52.300Z,5.07
2023-03-27T09:17:32.302Z,5.50
2023-03-27T09:20:25.495Z,5.90
2023-03-27T09:23:03.511Z,5.00
2023-03-27T09:25:43.495Z,5.47
2023-03-27T09:28:30.075Z,4.90
2023-03-27T09:30:57.335Z,5.73
2023-03-27T09:33:26.949Z,4.90
2023-03-27T09:36:01.328Z,4.93
2023-03-27T09:38:50.335Z,5.20
2023-03-27T09:41:24.911Z,5.03
2023-03-27T09:44:10.247Z,4.63
2023-03-27T09:46:42.495Z,4.63
2023-03-27T09:49:15.042Z,4.53
2023-03-27T09:51:49.289Z,4.47
2023-03-27T09:54:18.395Z,4.70
2023-03-27T09:56:48.881Z,5.50
2023-03-27T09:59:26.905Z,4.80
2023-03-27T10:01:57.767Z,4.90
2023-03-27T10:04:26.344Z,4.17
2023-03-27T10:07:08.245Z,4.70
2023-03-27T10:09:36.996Z,4.13
2023-03-27T10:12:07.166Z,4.60
2023-03-27T10:14:38.609Z,5.03
2023-03-27T10:17:05.822Z,4.97
2023-03-27T10:19:36.946Z,5.50
2023-03-27T10:22:15.122Z,5.00
2023-03-27T10:24:46.106Z,4.87
2023-03-27T10:27:25.258Z,4.47
2023-03-27T10:29:52.159Z,5.57
2023-03-27T10:32:18.779Z,5.73
2023-03-27T10:34:55.385Z,4.50
2023-03-27T10:37:28.508Z,5.13
2023-03-27T10:39:58.940Z,5.10
2023-03-27T10:42:27.665Z,4.83
2023-03-27T10:44:56.639Z,4.83
2023-03-27T10:47:50.784Z,4.60
2023-03-27T10:50:53.098Z,4.77
2023-03-27T10:53:40.933Z,4.77
2023-03-27T10:56:15.144Z,4.07
2023-03-27T10:58:50.803Z,4.73
2023-03-27T11:01:30.322Z,4.63
2023-03-27T11:04:22.805Z,4.80
2023-03-27T11:06:52.552Z,4.37
2023-03-27T11:09:26.961Z,4.13
2023-03-27T11:11:58.928Z,4.40
2023-03-27T11:14:31.184Z,4.30
2023-03-27T11:17:03.781Z,4.30
2023-03-27T11:19:42.921Z,3.87
2023-03-27T11:22:16.047Z,4.47
2023-03-27T11:25:06.482Z,4.73
2023-03-27T11:27:39.202Z,4.50
2023-03-27T11:30:09.789Z,4.60
2023-03-27T11:33:06.193Z,5.00
2023-03-27T11:35:44.609Z,4.37
2023-03-27T11:38:24.811Z,4.47
2023-03-27T11:40:51.370Z,4.70
2023-03-27T11:43:19.712Z,4.40
2023-03-27T11:46:05.906Z,4.70
2023-03-27T11:48:56.681Z,4.57
2023-03-27T11:51:29.503Z,4.73
2023-03-27T11:54:25.263Z,4.10
2023-03-27T11:56:57.705Z,4.20
2023-03-27T11:59:42.768Z,4.20
2023-03-27T12:02:29.135Z,4.00
2023-03-27T12:05:01.569Z,4.13
2023-03-27T12:07:44.081Z,4.00
2023-03-27T12:10:28.379Z,3.70
2023-03-27T12:13:40.490Z,4.03
2023-03-27T12:16:27.110Z,3.70
2023-03-27T12:19:29.671Z,3.80
2023-03-27T12:22:24.290Z,3.80
2023-03-27T12:25:22.527Z,3.80
2023-03-27T12:28:22.125Z,3.90
2023-03-27T12:30:59.564Z,3.57
2023-03-27T12:33:56.101Z,3.20
2023-03-27T12:36:26.076Z,3.87
2023-03-27T12:38:56.458Z,3.53
2023-03-27T12:41:25.394Z,3.83
2023-03-27T12:44:01.244Z,3.93
2023-03-27T12:46:32.501Z,3.90
2023-03-27T12:49:02.221Z,4.40
2023-03-27T12:51:43.937Z,4.30
2023-03-27T12:54:14.528Z,4.20
2023-03-27T12:56:42.117Z,3.93
2023-03-27T12:59:22.147Z,4.47
2023-03-27T13:02:06.507Z,4.70
2023-03-27T13:05:26.390Z,4.90
2023-03-27T13:08:32.054Z,5.17
2023-03-27T13:11:11.582Z,5.40
2023-03-27T13:14:12.869Z,5.40
2023-03-27T13:16:39.342Z,4.90
2023-03-27T13:19:31.649Z,4.93
2023-03-27T13:22:24.489Z,4.37
2023-03-27T13:24:54.235Z,4.20
2023-03-27T13:27:48.184Z,4.30
2023-03-27T13:30:50.336Z,3.97
2023-03-27T13:33:31.757Z,4.10
2023-03-27T13:35:58.732Z,4.13
2023-03-27T13:38:45.796Z,4.10
2023-03-27T13:41:40.805Z,4.00
2023-03-27T13:44:11.135Z,3.73
2023-03-27T13:46:41.907Z,3.93
2023-03-27T13:49:36.815Z,3.77
2023-03-27T13:52:26.166Z,4.00
2023-03-27T13:55:12.465Z,4.40
2023-03-27T13:57:51.522Z,4.53
2023-03-27T14:00:47.208Z,4.10
2023-03-27T14:03:41.789Z,4.00
2023-03-27T14:06:39.020Z,4.20
2023-03-27T14:09:14.639Z,3.73
2023-03-27T14:12:05.721Z,4.47
2023-03-27T14:14:44.426Z,4.00
2023-03-27T14:17:16.788Z,4.53
2023-03-27T14:20:13.078Z,5.53
2023-03-27T14:23:00.487Z,5.27
2023-03-27T14:25:34.801Z,5.63
2023-03-27T14:28:01.410Z,5.50
2023-03-27T14:30:45.303Z,5.90
2023-03-27T14:33:19.728Z,5.47
2023-03-27T14:35:57.189Z,5.70
2023-03-27T14:38:31.751Z,5.07
2023-03-27T14:41:00.389Z,4.40
2023-03-27T14:43:29.478Z,4.93
2023-03-27T14:46:00.767Z,5.13
2023-03-27T14:48:33.350Z,4.80
2023-03-27T14:51:03.328Z,5.20
2023-03-27T14:53:36.762Z,4.40
2023-03-27T14:56:18.341Z,4.47
2023-03-27T14:58:46.543Z,4.50
2023-03-27T15:01:17.100Z,3.83
2023-03-27T15:03:45.729Z,3.90
2023-03-27T15:06:15.301Z,3.37
2023-03-27T15:08:46.483Z,4.03
2023-03-27T15:11:22.180Z,3.33
2023-03-27T15:13:49.101Z,3.83
2023-03-27T15:16:24.577Z,4.90
2023-03-27T15:19:12.321Z,4.80
2023-03-27T15:22:05.876Z,4.33
2023-03-27T15:24:52.111Z,4.80
2023-03-27T15:27:30.500Z,4.60
2023-03-27T15:30:11.387Z,4.57
2023-03-27T15:32:49.935Z,5.00
2023-03-27T15:35:41.728Z,5.10
2023-03-27T15:38:12.820Z,5.10
2023-03-27T15:40:43.312Z,4.80
2023-03-27T15:43:22.193Z,5.13
2023-03-27T15:46:07.388Z,5.57
2023-03-27T15:48:40.605Z,5.83
2023-03-27T15:51:31.635Z,4.70
2023-03-27T15:53:58.813Z,6.10
2023-03-27T15:56:38.499Z,5.27
2023-03-27T15:59:10.493Z,4.80
2023-03-27T16:01:52.202Z,5.43
2023-03-27T16:04:31.130Z,5.13
2023-03-27T16:07:19.537Z,4.63
2023-03-27T16:09:59.536Z,5.20
2023-03-27T16:12:50.922Z,4.70
2023-03-27T16:15:31.818Z,4.23
2023-03-27T16:18:02.362Z,4.90
2023-03-27T16:20:34.627Z,4.80
2023-03-27T16:23:02.116Z,5.23
2023-03-27T16:25:28.717Z,5.00
2023-03-27T16:27:55.353Z,5.93
2023-03-27T16:30:42.403Z,5.10
2023-03-27T16:33:15.822Z,5.37
2023-03-27T16:35:44.046Z,5.53
2023-03-27T16:38:10.993Z,5.20
2023-03-27T16:40:37.528Z,5.47
2023-03-27T16:43:04.176Z,5.17
2023-03-27T16:45:30.933Z,5.30
2023-03-27T16:47:57.567Z,5.60
2023-03-27T16:50:27.509Z,5.77
2023-03-27T16:52:54.018Z,5.43
2023-03-27T16:55:20.679Z,5.60
2023-03-27T16:57:47.299Z,4.90
2023-03-27T17:00:16.474Z,5.00
2023-03-27T17:02:44.604Z,5.83
2023-03-27T17:05:11.711Z,5.50
2023-03-27T17:07:38.765Z,5.83
2023-03-27T17:10:06.490Z,4.93
2023-03-27T17:12:33.061Z,5.90
2023-03-27T17:14:59.666Z,5.57
2023-03-27T17:17:27.478Z,6.13
2023-03-27T17:19:54.245Z,5.27
2023-03-27T17:22:21.316Z,5.70
2023-03-27T17:24:56.122Z,5.57
2023-03-27T17:27:25.614Z,5.93
2023-03-27T17:29:52.141Z,5.50
2023-03-27T17:32:19.296Z,6.00
2023-03-27T17:34:45.912Z,6.30
2023-03-27T17:37:12.759Z,5.63
2023-03-27T17:39:39.667Z,5.67
2023-03-27T17:42:06.774Z,6.00
2023-03-27T17:44:33.473Z,5.53
2023-03-27T17:47:00.988Z,6.10
2023-03-27T17:49:29.406Z,5.93
2023-03-27T17:51:56.042Z,5.53
2023-03-27T17:54:22.635Z,6.00
2023-03-27T17:56:49.299Z,5.37
2023-03-27T17:59:15.927Z,6.50
2023-03-27T18:01:45.139Z,5.93
2023-03-27T18:04:12.042Z,6.63
2023-03-27T18:06:38.684Z,6.30
2023-03-27T18:09:07.216Z,5.77
2023-03-27T18:11:33.872Z,5.87
2023-03-27T18:14:00.797Z,6.13
2023-03-27T18:16:27.454Z,6.27
2023-03-27T18:18:55.377Z,6.33
2023-03-27T18:21:21.972Z,6.57
2023-03-27T18:23:48.530Z,6.10
2023-03-27T18:26:16.428Z,6.77
2023-03-27T18:28:43.294Z,6.53
2023-03-27T18:31:11.826Z,6.40
2023-03-27T18:33:38.743Z,6.77
2023-03-27T18:36:10.283Z,6.37
2023-03-27T18:38:41.779Z,5.90
2023-03-27T18:41:09.303Z,6.03
2023-03-27T18:43:36.387Z,6.80
2023-03-27T18:46:05.542Z,6.20
2023-03-27T18:48:32.754Z,6.23
2023-03-27T18:51:01.622Z,6.60
2023-03-27T18:53:28.441Z,7.27
2023-03-27T18:55:55.643Z,7.10
2023-03-27T18:58:26.624Z,6.63
2023-03-27T19:00:54.108Z,7.13
2023-03-27T19:03:23.253Z,6.27
2023-03-27T19:05:51.480Z,6.53
2023-03-27T19:08:19.139Z,6.37
2023-03-27T19:10:45.812Z,7.00
2023-03-27T19:13:12.325Z,6.80
2023-03-27T19:15:41.636Z,6.57
2023-03-27T19:18:08.574Z,6.97
2023-03-27T19:20:35.201Z,6.53
2023-03-27T19:23:01.933Z,6.77
2023-03-27T19:25:28.605Z,6.13
2023-03-27T19:27:55.724Z,7.40
2023-03-27T19:30:22.296Z,6.53
2023-03-27T19:32:50.517Z,6.80
2023-03-27T19:35:17.182Z,7.03
2023-03-27T19:37:43.744Z,6.70
2023-03-27T19:40:10.691Z,7.00
2023-03-27T19:42:37.300Z,6.67
2023-03-27T19:45:04.253Z,6.97
2023-03-27T19:47:31.357Z,7.03
2023-03-27T19:49:58.367Z,6.90
2023-03-27T19:52:26.050Z,6.77
2023-03-27T19:54:53.700Z,7.00
2023-03-27T19:57:20.815Z,7.00
2023-03-27T19:59:47.473Z,7.47
2023-03-27T20:02:14.620Z,7.13
2023-03-27T20:04:41.306Z,7.03
2023-03-27T20:07:07.882Z,7.43
2023-03-27T20:09:34.771Z,6.73
2023-03-27T20:12:01.424Z,7.33
2023-03-27T20:14:27.960Z,6.80
2023-03-27T20:16:54.496Z,7.43
2023-03-27T20:19:22.158Z,7.17
2023-03-27T20:21:49.020Z,7.37
2023-03-27T20:24:17.233Z,7.30
2023-03-27T20:26:48.057Z,7.63
2023-03-27T20:29:17.487Z,7.13
2023-03-27T20:31:44.151Z,7.47
2023-03-27T20:34:11.355Z,7.63
2023-03-27T20:36:38.914Z,7.47
2023-03-27T20:39:07.253Z,7.20
2023-03-27T20:41:38.980Z,7.80
2023-03-27T20:44:16.352Z,7.53
2023-03-27T20:46:50.961Z,7.37
2023-03-27T20:49:39.817Z,8.03
2023-03-27T20:52:07.733Z,7.60
2023-03-27T20:54:34.579Z,8.70
2023-03-27T20:57:02.435Z,7.40
2023-03-27T20:59:29.883Z,7.17
2023-03-27T21:01:57.081Z,7.10
2023-03-27T21:04:25.760Z,6.93
2023-03-27T21:06:54.695Z,7.00
2023-03-27T21:09:23.255Z,7.53
2023-03-27T21:11:50.203Z,7.00
2023-03-27T21:14:17.128Z,7.53
2023-03-27T21:16:43.890Z,7.90
2023-03-27T21:19:11.725Z,7.07
2023-03-27T21:21:38.640Z,7.23
2023-03-27T21:24:05.897Z,6.80
2023-03-27T21:26:32.492Z,7.00
2023-03-27T21:28:59.112Z,7.10
2023-03-27T21:31:25.755Z,7.97
2023-03-27T21:33:52.388Z,7.33
2023-03-27T21:36:19.016Z,7.43
2023-03-27T21:38:45.750Z,7.50
2023-03-27T21:41:15.471Z,8.70
2023-03-27T21:43:42.021Z,7.23
2023-03-27T21:46:09.017Z,7.37
2023-03-27T21:48:35.720Z,7.63
2023-03-27T21:51:04.764Z,7.70
2023-03-27T21:53:31.489Z,7.30
2023-03-27T21:55:58.446Z,7.87
2023-03-27T21:58:25.633Z,7.73
2023-03-27T22:00:54.642Z,7.23
2023-03-27T22:03:21.209Z,7.17
2023-03-27T22:05:57.458Z,7.13
2023-03-27T22:08:36.496Z,6.80
2023-03-27T22:11:03.643Z,6.83
2023-03-27T22:13:30.228Z,7.23
2023-03-27T22:15:56.904Z,7.97
2023-03-27T22:18:24.459Z,8.13
2023-03-27T22:20:51.151Z,7.90
2023-03-27T22:23:17.691Z,7.57
2023-03-27T22:25:52.216Z,7.80
2023-03-27T22:28:18.717Z,6.80
2023-03-27T22:30:45.366Z,7.47
2023-03-27T22:33:11.873Z,8.63
2023-03-27T22:35:38.483Z,7.50
2023-03-27T22:38:05.389Z,7.37
2023-03-27T22:40:31.985Z,8.20
2023-03-27T22:42:58.503Z,7.47
2023-03-27T22:45:25.150Z,7.73
2023-03-27T22:47:51.745Z,7.43
2023-03-27T22:50:18.262Z,7.63
2023-03-27T22:52:44.761Z,7.67
2023-03-27T22:55:11.346Z,8.00
2023-03-27T22:57:38.090Z,7.83
2023-03-27T23:00:05.992Z,7.70
2023-03-27T23:02:32.608Z,8.00
2023-03-27T23:04:59.183Z,7.33
2023-03-27T23:07:25.717Z,7.70
2023-03-27T23:09:52.252Z,8.03
2023-03-27T23:12:18.806Z,7.97
2023-03-27T23:14:45.491Z,8.10
2023-03-27T23:17:12.529Z,7.57
2023-03-27T23:19:39.315Z,7.97
2023-03-27T23:22:06.039Z,6.97
2023-03-27T23:24:32.578Z,8.27
2023-03-27T23:26:59.084Z,8.10
2023-03-27T23:29:25.847Z,8.70
2023-03-27T23:31:52.450Z,7.50
2023-03-27T23:34:19.204Z,7.20
2023-03-27T23:36:45.772Z,8.00
2023-03-27T23:39:12.305Z,7.70
2023-03-27T23:41:38.823Z,8.00
2023-03-27T23:44:05.531Z,7.60
2023-03-27T23:46:32.451Z,7.73
2023-03-27T23:48:59.149Z,8.30
2023-03-27T23:51:25.719Z,8.27
2023-03-27T23:53:52.244Z,7.27
2023-03-27T23:56:18.751Z,8.60
2023-03-27T23:58:45.529Z,7.03
